createdAt,value
2018-05-12T00:02:26.129Z,12.40
2018-05-12T00:04:53.592Z,12.30
2018-05-12T00:07:21.017Z,12.40
2018-05-12T00:09:49.237Z,12.40
2018-05-12T00:12:16.666Z,12.40
2018-05-12T00:14:44.100Z,12.40
2018-05-12T00:17:12.302Z,12.40
2018-05-12T00:19:39.744Z,12.30
2018-05-12T00:22:07.172Z,12.40
2018-05-12T00:24:35.502Z,12.40
2018-05-12T00:27:02.963Z,12.40
2018-05-12T00:29:30.400Z,12.40
2018-05-12T00:31:57.838Z,12.40
2018-05-12T00:34:26.037Z,12.30
2018-05-12T00:36:53.477Z,12.30
2018-05-12T00:39:21.682Z,12.30
2018-05-12T00:41:49.133Z,12.30
2018-05-12T00:44:16.582Z,12.30
2018-05-12T00:46:44.024Z,12.40
2018-05-12T00:49:11.458Z,12.30
2018-05-12T00:51:39.661Z,12.30
2018-05-12T00:54:07.137Z,12.30
2018-05-12T00:56:34.578Z,12.30
2018-05-12T00:59:02.009Z,12.30
2018-05-12T01:01:29.449Z,12.20
2018-05-12T01:03:57.659Z,12.10
2018-05-12T01:06:25.215Z,12.00
2018-05-12T01:08:52.642Z,12.00
2018-05-12T01:11:20.868Z,11.80
2018-05-12T01:13:48.313Z,11.80
2018-05-12T01:16:15.756Z,11.80
2018-05-12T01:18:43.192Z,11.80
2018-05-12T01:21:10.623Z,11.70
2018-05-12T01:23:38.063Z,11.70
2018-05-12T01:26:05.500Z,11.70
2018-05-12T01:28:32.948Z,11.70
2018-05-12T01:31:00.401Z,11.70
2018-05-12T01:33:27.836Z,11.60
2018-05-12T01:35:55.268Z,11.70
2018-05-12T01:38:23.480Z,11.60
2018-05-12T01:40:50.957Z,11.60
2018-05-12T01:43:18.425Z,11.60
2018-05-12T01:45:45.860Z,11.50
2018-05-12T01:48:13.304Z,11.50
2018-05-12T01:50:40.729Z,11.50
2018-05-12T01:53:08.932Z,11.50
2018-05-12T01:55:36.365Z,11.50
2018-05-12T01:58:03.805Z,11.50
2018-05-12T02:00:31.997Z,11.50
2018-05-12T02:02:59.460Z,11.50
2018-05-12T02:05:26.892Z,11.60
2018-05-12T02:07:55.085Z,11.60
2018-05-12T02:10:22.524Z,11.60
2018-05-12T02:12:50.750Z,11.50
2018-05-12T02:15:18.192Z,11.50
2018-05-12T02:17:45.617Z,11.50
2018-05-12T02:20:13.820Z,11.40
2018-05-12T02:22:41.253Z,11.40
2018-05-12T02:25:08.687Z,11.40
2018-05-12T02:27:36.887Z,11.30
2018-05-12T02:30:04.324Z,11.30
2018-05-12T02:32:32.531Z,11.30
2018-05-12T02:34:59.975Z,11.30
2018-05-12T02:37:28.168Z,11.20
2018-05-12T02:39:55.625Z,11.20
2018-05-12T02:42:23.074Z,11.20
2018-05-12T02:44:50.529Z,11.10
2018-05-12T02:47:17.956Z,11.10
2018-05-12T02:49:46.153Z,11.00
2018-05-12T02:52:13.588Z,11.00
2018-05-12T02:54:41.786Z,11.00
2018-05-12T02:57:09.224Z,11.00
2018-05-12T02:59:36.685Z,11.00
2018-05-12T03:02:04.145Z,10.90
2018-05-12T03:04:31.570Z,10.90
2018-05-12T03:06:59.012Z,10.90
2018-05-12T03:09:26.449Z,10.90
2018-05-12T03:11:53.885Z,10.90
2018-05-12T03:14:21.321Z,10.80
2018-05-12T03:16:48.763Z,10.80
2018-05-12T03:19:16.972Z,10.70
2018-05-12T03:21:44.448Z,10.80
2018-05-12T03:24:11.888Z,10.70
2018-05-12T03:26:39.326Z,10.70
2018-05-12T03:29:06.763Z,10.70
2018-05-12T03:31:34.961Z,10.80
2018-05-12T03:34:02.401Z,10.80
2018-05-12T03:36:29.897Z,10.80
2018-05-12T03:38:57.368Z,10.80
2018-05-12T03:41:24.847Z,10.80
2018-05-12T03:43:53.072Z,10.70
2018-05-12T03:46:20.500Z,10.70
2018-05-12T03:48:47.945Z,10.70
2018-05-12T03:51:16.144Z,10.60
2018-05-12T03:53:43.594Z,10.60
2018-05-12T03:59:04.550Z,10.60
2018-05-12T04:01:31.981Z,10.60
2018-05-12T04:03:59.420Z,10.50
2018-05-12T04:06:38.766Z,10.50
2018-05-12T04:09:18.141Z,10.50
2018-05-12T04:11:57.454Z,10.50
2018-05-12T04:14:24.925Z,10.50
2018-05-12T04:16:52.357Z,10.50
2018-05-12T04:19:19.809Z,10.50
2018-05-12T04:21:47.245Z,10.40
2018-05-12T04:24:15.729Z,10.50
2018-05-12T04:26:43.171Z,10.50
2018-05-12T04:29:11.403Z,10.50
2018-05-12T04:31:38.853Z,10.50
2018-05-12T04:34:06.284Z,10.50
2018-05-12T04:36:33.716Z,10.50
2018-05-12T04:39:01.924Z,10.50
2018-05-12T04:41:29.378Z,10.50
2018-05-12T04:43:56.810Z,10.50
2018-05-12T04:46:24.278Z,10.50
2018-05-12T04:48:51.725Z,10.60
2018-05-12T04:51:19.170Z,10.60
2018-05-12T04:53:47.373Z,10.60
2018-05-12T04:56:14.809Z,10.60
2018-05-12T04:58:42.239Z,10.70
2018-05-12T05:01:10.453Z,10.80
2018-05-12T05:03:37.897Z,10.80
2018-05-12T05:08:38.958Z,11.00
2018-05-12T05:11:06.409Z,10.90
2018-05-12T05:13:33.856Z,11.00
2018-05-12T05:16:02.053Z,11.20
2018-05-12T05:18:29.493Z,11.20
2018-05-12T05:20:56.922Z,11.30
2018-05-12T05:23:24.372Z,11.40
2018-05-12T05:25:51.808Z,11.50
2018-05-12T05:28:19.261Z,11.60
2018-05-12T05:30:46.718Z,11.70
2018-05-12T05:33:14.144Z,11.80
2018-05-12T05:35:41.568Z,12.00
2018-05-12T05:38:09.781Z,12.30
2018-05-12T05:40:37.246Z,12.20
2018-05-12T05:43:04.689Z,12.40
2018-05-12T05:45:32.137Z,12.60
2018-05-12T05:47:59.572Z,12.80
2018-05-12T05:50:27.769Z,13.10
2018-05-12T05:52:55.212Z,13.10
2018-05-12T05:55:22.665Z,13.30
2018-05-12T05:57:50.149Z,13.50
2018-05-12T06:00:17.665Z,13.60
2018-05-12T06:02:45.872Z,13.90
2018-05-12T06:05:13.336Z,13.90
2018-05-12T06:07:40.783Z,14.00
2018-05-12T06:10:08.239Z,14.20
2018-05-12T06:12:35.675Z,14.30
2018-05-12T06:15:03.874Z,14.50
2018-05-12T06:17:31.330Z,14.50
2018-05-12T06:19:58.793Z,14.60
2018-05-12T06:22:26.453Z,14.70
2018-05-12T06:24:53.881Z,14.70
2018-05-12T06:27:22.095Z,14.90
2018-05-12T06:29:49.528Z,14.90
2018-05-12T06:32:16.964Z,15.00
2018-05-12T06:34:45.165Z,15.10
2018-05-12T06:37:13.640Z,15.10
2018-05-12T06:39:41.077Z,15.20
2018-05-12T06:42:09.357Z,15.40
2018-05-12T06:44:36.846Z,15.30
2018-05-12T06:47:04.312Z,15.40
2018-05-12T06:49:31.753Z,15.50
2018-05-12T06:52:04.945Z,15.70
2018-05-12T06:54:32.387Z,15.60
2018-05-12T06:56:59.943Z,15.70
2018-05-12T06:59:27.489Z,15.80
2018-05-12T07:01:54.977Z,15.90
2018-05-12T07:04:22.420Z,16.00
2018-05-12T07:06:49.850Z,16.00
2018-05-12T07:09:18.049Z,16.20
2018-05-12T07:11:45.484Z,16.20
2018-05-12T07:14:13.735Z,16.50
2018-05-12T07:16:41.178Z,16.40
2018-05-12T07:19:08.628Z,16.60
2018-05-12T07:21:36.056Z,16.70
2018-05-12T07:24:03.507Z,16.80
2018-05-12T07:26:30.941Z,16.90
2018-05-12T07:28:59.144Z,17.00
2018-05-12T07:31:26.570Z,17.00
2018-05-12T07:33:54.881Z,17.20
2018-05-12T07:36:22.331Z,17.20
2018-05-12T07:38:49.764Z,17.30
2018-05-12T07:41:17.205Z,17.30
2018-05-12T07:43:45.414Z,17.40
2018-05-12T07:46:12.843Z,17.50
2018-05-12T07:48:41.059Z,17.60
2018-05-12T07:51:08.550Z,17.60
2018-05-12T07:53:36.009Z,17.70
2018-05-12T07:56:03.445Z,17.80
2018-05-12T07:58:30.882Z,17.80
2018-05-12T08:00:58.321Z,17.90
2018-05-12T08:03:25.807Z,18.00
2018-05-12T08:05:53.223Z,18.10
2018-05-12T08:08:20.652Z,18.20
2018-05-12T08:10:48.097Z,18.20
2018-05-12T08:13:15.529Z,18.30
2018-05-12T08:15:42.993Z,18.40
2018-05-12T08:18:10.446Z,18.60
2018-05-12T08:20:37.992Z,18.60
2018-05-12T08:23:05.352Z,18.60
2018-05-12T08:25:32.811Z,18.70
2018-05-12T08:28:00.248Z,18.70
2018-05-12T08:30:28.002Z,18.80
2018-05-12T08:32:55.462Z,18.80
2018-05-12T08:35:23.188Z,18.80
2018-05-12T08:37:50.647Z,18.80
2018-05-12T08:40:18.893Z,18.90
2018-05-12T08:42:46.325Z,18.90
2018-05-12T08:45:14.258Z,19.00
2018-05-12T08:47:42.582Z,19.20
2018-05-12T08:50:10.153Z,19.10
2018-05-12T08:52:37.842Z,19.20
2018-05-12T08:55:06.295Z,19.30
2018-05-12T08:57:33.766Z,19.30
2018-05-12T09:00:01.206Z,19.40
2018-05-12T09:02:28.652Z,19.50
2018-05-12T09:04:56.093Z,19.60
2018-05-12T09:07:23.530Z,19.70
2018-05-12T09:12:20.732Z,19.80
2018-05-12T09:14:48.945Z,19.80
2018-05-12T09:17:17.231Z,19.90
2018-05-12T09:19:45.712Z,20.00
2018-05-12T09:22:13.158Z,19.90
2018-05-12T09:24:40.600Z,20.00
2018-05-12T09:27:08.030Z,20.10
2018-05-12T09:29:35.640Z,20.10
2018-05-12T09:32:04.143Z,20.10
2018-05-12T09:34:32.417Z,19.50
2018-05-12T09:36:59.848Z,20.20
2018-05-12T09:39:28.044Z,20.30
2018-05-12T09:41:55.484Z,20.20
2018-05-12T09:44:23.682Z,20.30
2018-05-12T09:46:51.390Z,20.30
2018-05-12T09:49:19.576Z,20.50
2018-05-12T09:51:47.017Z,20.40
2018-05-12T09:54:14.497Z,20.50
2018-05-12T09:56:41.946Z,20.50
2018-05-12T09:59:09.392Z,20.60
2018-05-12T10:01:38.347Z,20.70
2018-05-12T10:04:05.773Z,20.70
2018-05-12T10:06:33.981Z,20.80
2018-05-12T10:09:01.417Z,20.70
2018-05-12T10:11:28.873Z,20.80
2018-05-12T10:13:56.305Z,20.80
2018-05-12T10:16:24.534Z,20.90
2018-05-12T10:18:52.759Z,20.90
2018-05-12T10:21:20.965Z,21.00
2018-05-12T10:23:48.397Z,21.00
2018-05-12T10:26:16.627Z,21.10
2018-05-12T10:28:44.060Z,21.10
2018-05-12T10:31:11.509Z,21.10
2018-05-12T10:33:38.961Z,21.10
2018-05-12T10:36:06.409Z,21.20
2018-05-12T10:38:33.845Z,21.20
2018-05-12T10:41:02.079Z,21.30
2018-05-12T10:43:29.530Z,21.30
2018-05-12T10:45:56.972Z,21.30
2018-05-12T10:48:24.402Z,21.40
2018-05-12T10:50:52.650Z,21.40
2018-05-12T10:53:20.081Z,21.30
2018-05-12T10:55:47.509Z,21.40
2018-05-12T10:58:15.183Z,21.40
2018-05-12T11:00:42.649Z,21.50
2018-05-12T11:03:10.091Z,21.60
2018-05-12T11:05:37.519Z,21.70
2018-05-12T11:08:05.730Z,21.70
2018-05-12T11:10:33.164Z,21.70
2018-05-12T11:13:01.029Z,21.70
2018-05-12T11:15:29.278Z,21.70
2018-05-12T11:17:56.724Z,21.70
2018-05-12T11:20:24.156Z,21.80
2018-05-12T11:22:51.604Z,21.80
2018-05-12T11:25:19.045Z,21.80
2018-05-12T11:27:46.501Z,21.90
2018-05-12T11:30:14.019Z,21.90
2018-05-12T11:32:41.563Z,21.90
2018-05-12T11:35:09.000Z,22.00
2018-05-12T11:37:36.611Z,22.00
2018-05-12T11:40:04.073Z,22.00
2018-05-12T11:42:32.307Z,22.10
2018-05-12T11:44:59.752Z,22.00
2018-05-12T11:47:27.193Z,22.10
2018-05-12T11:49:54.625Z,22.10
2018-05-12T11:52:22.146Z,22.10
2018-05-12T11:54:49.603Z,22.20
2018-05-12T11:57:17.047Z,22.20
2018-05-12T11:59:44.709Z,22.30
2018-05-12T12:02:12.213Z,22.30
2018-05-12T12:04:39.712Z,22.40
2018-05-12T12:07:07.160Z,22.40
2018-05-12T12:09:34.605Z,22.40
2018-05-12T12:12:02.051Z,22.50
2018-05-12T12:14:29.481Z,22.50
2018-05-12T12:16:57.689Z,22.50
2018-05-12T12:19:25.122Z,22.50
2018-05-12T12:21:53.353Z,22.60
2018-05-12T12:24:20.789Z,22.60
2018-05-12T12:26:48.223Z,22.70
2018-05-12T12:29:15.668Z,22.80
2018-05-12T12:31:43.896Z,23.00
2018-05-12T12:34:12.282Z,23.00
2018-05-12T12:36:39.734Z,23.00
2018-05-12T12:39:07.172Z,23.00
2018-05-12T12:41:34.828Z,22.90
2018-05-12T12:44:03.003Z,22.90
2018-05-12T12:46:30.437Z,22.90
2018-05-12T12:48:57.877Z,23.00
2018-05-12T12:51:26.080Z,23.10
2018-05-12T12:53:53.539Z,23.00
2018-05-12T12:56:20.980Z,23.10
2018-05-12T12:58:49.193Z,23.10
2018-05-12T13:01:16.707Z,23.10
2018-05-12T13:03:44.913Z,23.20
2018-05-12T13:06:12.357Z,23.20
2018-05-12T13:08:39.801Z,23.30
2018-05-12T13:11:07.998Z,23.20
2018-05-12T13:13:35.451Z,23.20
2018-05-12T13:16:02.972Z,23.20
2018-05-12T13:21:06.116Z,23.20
2018-05-12T13:23:33.553Z,23.20
2018-05-12T13:26:01.754Z,23.30
2018-05-12T13:28:29.194Z,23.20
2018-05-12T13:30:56.631Z,23.20
2018-05-12T13:33:24.838Z,23.20
2018-05-12T13:35:52.265Z,23.20
2018-05-12T13:38:20.477Z,23.30
2018-05-12T13:40:47.940Z,23.30
2018-05-12T13:43:15.390Z,23.30
2018-05-12T13:45:42.887Z,23.30
2018-05-12T13:48:10.321Z,23.30
2018-05-12T13:50:37.761Z,23.30
2018-05-12T13:53:05.976Z,23.30
2018-05-12T13:55:33.429Z,23.20
2018-05-12T13:58:00.876Z,23.20
2018-05-12T14:00:28.332Z,23.20
2018-05-12T14:02:56.528Z,23.10
2018-05-12T14:05:23.972Z,23.00
2018-05-12T14:07:51.401Z,23.10
2018-05-12T14:10:18.849Z,23.10
2018-05-12T14:12:46.278Z,23.00
2018-05-12T14:15:14.481Z,23.10
2018-05-12T14:17:41.935Z,23.60
2018-05-12T14:20:09.389Z,23.00
2018-05-12T14:22:36.877Z,23.00
2018-05-12T14:25:04.341Z,23.10
2018-05-12T14:27:31.789Z,23.10
2018-05-12T14:30:00.001Z,23.10
2018-05-12T14:32:28.214Z,23.10
2018-05-12T14:34:55.667Z,23.10
2018-05-12T14:37:23.873Z,23.10
2018-05-12T14:39:51.324Z,23.10
2018-05-12T14:42:18.782Z,23.10
2018-05-12T14:44:47.185Z,23.00
2018-05-12T14:47:14.633Z,23.00
2018-05-12T14:49:42.250Z,23.00
2018-05-12T14:52:09.819Z,22.90
2018-05-12T14:54:38.053Z,22.80
2018-05-12T14:57:06.479Z,22.80
2018-05-12T14:59:33.946Z,22.80
2018-05-12T15:02:01.385Z,22.80
2018-05-12T15:04:29.614Z,22.80
2018-05-12T15:06:57.061Z,22.80
2018-05-12T15:09:24.516Z,22.80
2018-05-12T15:11:53.471Z,22.80
2018-05-12T15:14:21.687Z,22.80
2018-05-12T15:16:49.112Z,22.70
2018-05-12T15:19:16.671Z,22.80
2018-05-12T15:21:44.117Z,22.80
2018-05-12T15:24:11.549Z,22.70
2018-05-12T15:26:39.757Z,22.80
2018-05-12T15:29:07.194Z,22.70
2018-05-12T15:31:34.702Z,22.70
2018-05-12T15:34:02.165Z,22.70
2018-05-12T15:36:30.398Z,22.80
2018-05-12T15:38:58.599Z,22.80
2018-05-12T15:41:26.093Z,22.70
2018-05-12T15:43:54.397Z,22.80
2018-05-12T15:46:21.769Z,22.80
2018-05-12T15:48:49.210Z,22.80
2018-05-12T15:51:16.643Z,22.80
2018-05-12T15:53:44.868Z,22.90
2018-05-12T15:56:12.643Z,22.90
2018-05-12T15:58:40.146Z,22.90
2018-05-12T16:01:08.357Z,22.90
2018-05-12T16:03:35.799Z,22.80
2018-05-12T16:06:03.233Z,22.80
2018-05-12T16:08:31.460Z,22.80
2018-05-12T16:10:58.905Z,22.80
2018-05-12T16:13:26.363Z,22.90
2018-05-12T16:15:53.797Z,22.90
2018-05-12T16:18:21.249Z,23.00
2018-05-12T16:20:48.697Z,23.00
2018-05-12T16:23:16.923Z,23.00
2018-05-12T16:25:44.437Z,22.90
2018-05-12T16:28:11.796Z,23.00
2018-05-12T16:30:39.234Z,23.10
2018-05-12T16:33:07.460Z,23.20
2018-05-12T16:35:34.925Z,23.20
2018-05-12T16:38:02.359Z,23.50
2018-05-12T16:40:31.455Z,23.90
2018-05-12T16:42:58.926Z,23.90
2018-05-12T16:45:27.132Z,24.30
2018-05-12T16:47:55.324Z,24.40
2018-05-12T16:50:23.706Z,24.30
2018-05-12T16:52:53.148Z,24.20
2018-05-12T16:55:22.044Z,24.20
2018-05-12T16:57:50.342Z,24.00
2018-05-12T17:00:17.940Z,24.00
2018-05-12T17:02:46.143Z,24.10
2018-05-12T17:05:13.583Z,24.10
2018-05-12T17:07:41.065Z,24.30
2018-05-12T17:10:08.552Z,24.50
2018-05-12T17:12:36.092Z,25.00
2018-05-12T17:15:03.570Z,25.50
2018-05-12T17:17:31.200Z,25.80
2018-05-12T17:19:58.656Z,26.10
2018-05-12T17:22:26.114Z,26.40
2018-05-12T17:24:53.745Z,26.30
2018-05-12T17:27:21.959Z,25.90
2018-05-12T17:29:49.451Z,25.90
2018-05-12T17:32:16.896Z,25.90
2018-05-12T17:34:44.393Z,25.60
2018-05-12T17:37:11.915Z,25.10
2018-05-12T17:39:39.510Z,24.60
2018-05-12T17:42:07.881Z,23.70
2018-05-12T17:44:36.203Z,23.30
2018-05-12T17:47:03.736Z,23.30
2018-05-12T17:49:31.182Z,23.00
2018-05-12T17:51:59.394Z,22.40
2018-05-12T17:54:26.824Z,22.40
2018-05-12T17:56:54.280Z,22.20
2018-05-12T17:59:22.482Z,21.90
2018-05-12T18:01:49.934Z,21.80
2018-05-12T18:04:17.364Z,21.80
2018-05-12T18:06:44.804Z,21.70
2018-05-12T18:09:13.005Z,21.50
2018-05-12T18:11:40.450Z,21.40
2018-05-12T18:14:08.660Z,21.30
2018-05-12T18:16:36.097Z,21.30
2018-05-12T18:19:03.531Z,21.20
2018-05-12T18:21:31.730Z,21.10
2018-05-12T18:23:59.166Z,21.10
2018-05-12T18:26:26.617Z,21.10
2018-05-12T18:28:54.816Z,20.90
2018-05-12T18:31:22.253Z,20.90
2018-05-12T18:33:49.697Z,20.90
2018-05-12T18:36:18.034Z,20.80
2018-05-12T18:38:45.508Z,20.70
2018-05-12T18:41:12.941Z,20.70
2018-05-12T18:43:40.396Z,20.60
2018-05-12T18:46:07.875Z,20.60
2018-05-12T18:48:35.323Z,20.50
2018-05-12T18:51:02.756Z,20.50
2018-05-12T18:53:30.198Z,20.40
2018-05-12T18:55:57.640Z,20.40
2018-05-12T18:58:25.089Z,20.30
2018-05-12T19:00:53.289Z,20.20
2018-05-12T19:03:20.737Z,20.20
2018-05-12T19:05:48.186Z,20.10
2018-05-12T19:08:15.632Z,20.10
2018-05-12T19:10:43.834Z,20.00
2018-05-12T19:13:11.273Z,19.90
2018-05-12T19:15:38.718Z,19.90
2018-05-12T19:18:06.950Z,19.80
2018-05-12T19:20:34.401Z,19.80
2018-05-12T19:23:01.845Z,19.80
2018-05-12T19:25:29.292Z,19.90
2018-05-12T19:27:56.745Z,19.70
2018-05-12T19:30:24.181Z,19.60
2018-05-12T19:32:51.750Z,19.60
2018-05-12T19:35:19.828Z,19.50
2018-05-12T19:37:47.272Z,19.50
2018-05-12T19:40:14.700Z,19.50
2018-05-12T19:42:42.145Z,19.40
2018-05-12T19:45:09.580Z,19.40
2018-05-12T19:47:37.106Z,19.30
2018-05-12T19:50:04.545Z,19.30
2018-05-12T19:52:32.776Z,19.20
2018-05-12T19:55:00.232Z,19.20
2018-05-12T19:57:27.662Z,19.10
2018-05-12T19:59:55.190Z,19.10
2018-05-12T20:02:23.418Z,19.10
2018-05-12T20:04:50.860Z,19.10
2018-05-12T20:07:18.302Z,19.00
2018-05-12T20:09:45.788Z,19.00
2018-05-12T20:12:13.186Z,18.90
2018-05-12T20:14:41.401Z,18.80
2018-05-12T20:17:08.836Z,18.90
2018-05-12T20:19:36.283Z,18.80
2018-05-12T20:22:04.480Z,18.70
2018-05-12T20:24:31.921Z,18.70
2018-05-12T20:26:59.365Z,18.70
2018-05-12T20:29:27.570Z,18.50
2018-05-12T20:31:55.002Z,18.60
2018-05-12T20:34:22.458Z,18.50
2018-05-12T20:36:49.916Z,18.40
2018-05-12T20:39:18.136Z,18.30
2018-05-12T20:41:45.570Z,18.30
2018-05-12T20:44:13.013Z,18.20
2018-05-12T20:46:40.449Z,18.20
2018-05-12T20:49:08.665Z,18.00
2018-05-12T20:51:36.093Z,18.00
2018-05-12T20:54:04.312Z,17.90
2018-05-12T20:56:31.741Z,17.90
2018-05-12T20:58:59.182Z,17.80
2018-05-12T21:01:26.658Z,17.70
2018-05-12T21:03:54.127Z,17.70
2018-05-12T21:06:21.572Z,17.60
2018-05-12T21:08:49.392Z,17.60
2018-05-12T21:11:16.821Z,17.50
2018-05-12T21:13:44.277Z,17.50
2018-05-12T21:16:11.732Z,17.40
2018-05-12T21:18:39.257Z,17.40
2018-05-12T21:21:06.684Z,17.30
2018-05-12T21:23:34.901Z,17.30
2018-05-12T21:26:02.333Z,17.30
2018-05-12T21:28:29.775Z,17.20
2018-05-12T21:30:57.973Z,17.20
2018-05-12T21:33:25.406Z,17.20
2018-05-12T21:35:53.283Z,17.10
2018-05-12T21:38:20.717Z,17.10
2018-05-12T21:40:48.937Z,17.10
2018-05-12T21:43:16.387Z,17.00
2018-05-12T21:45:43.867Z,17.00
2018-05-12T21:48:11.335Z,17.00
2018-05-12T21:50:38.781Z,17.00
2018-05-12T21:53:06.230Z,17.00
2018-05-12T21:55:33.666Z,17.00
2018-05-12T21:58:01.104Z,17.00
2018-05-12T22:00:28.612Z,17.00
2018-05-12T22:02:56.072Z,17.00
2018-05-12T22:05:23.534Z,17.00
2018-05-12T22:07:50.979Z,17.00
2018-05-12T22:10:18.478Z,17.00
2018-05-12T22:12:45.925Z,17.00
2018-05-12T22:15:14.280Z,17.10
2018-05-12T22:17:42.404Z,17.00
2018-05-12T22:20:10.113Z,17.10
2018-05-12T22:22:37.801Z,17.10
2018-05-12T22:25:06.121Z,17.10
2018-05-12T22:27:34.309Z,17.10
2018-05-12T22:30:01.838Z,17.10
2018-05-12T22:32:29.381Z,17.00
2018-05-12T22:34:57.596Z,17.00
2018-05-12T22:37:25.085Z,17.00
2018-05-12T22:39:52.537Z,18.00
2018-05-12T22:42:20.777Z,16.90
2018-05-12T22:44:48.393Z,16.90
2018-05-12T22:47:16.694Z,16.90
2018-05-12T22:49:44.041Z,16.80
2018-05-12T22:52:11.841Z,16.80
2018-05-12T22:54:40.104Z,16.70
2018-05-12T22:57:09.122Z,16.60
2018-05-12T22:59:36.556Z,16.60
2018-05-12T23:02:04.053Z,16.60
2018-05-12T23:04:31.525Z,16.20
2018-05-12T23:06:59.756Z,16.40
2018-05-12T23:09:27.192Z,16.40
2018-05-12T23:11:54.927Z,16.30
2018-05-12T23:14:22.549Z,16.30
2018-05-12T23:16:50.061Z,16.30
2018-05-12T23:19:17.837Z,16.20
2018-05-12T23:21:45.465Z,16.20
2018-05-12T23:24:13.660Z,16.10
2018-05-12T23:26:41.097Z,16.10
2018-05-12T23:29:09.309Z,16.10
2018-05-12T23:31:36.751Z,16.00
2018-05-12T23:34:04.184Z,16.00
2018-05-12T23:36:32.475Z,15.90
2018-05-12T23:38:59.825Z,15.90
2018-05-12T23:41:27.257Z,15.90
2018-05-12T23:43:55.473Z,15.80
2018-05-12T23:46:22.912Z,15.80
2018-05-12T23:48:50.354Z,15.80
2018-05-12T23:51:18.565Z,15.70
2018-05-12T23:53:45.998Z,15.70
2018-05-12T23:56:13.437Z,15.70
2018-05-12T23:58:41.661Z,15.70
